createdAt,value
2022-12-25T00:02:14.078Z,9.68
2022-12-25T00:04:41.671Z,9.65
2022-12-25T00:07:09.182Z,9.80
2022-12-25T00:09:36.673Z,9.76
2022-12-25T00:12:04.293Z,9.48
2022-12-25T00:14:33.377Z,9.46
2022-12-25T00:17:00.856Z,9.56
2022-12-25T00:19:28.346Z,9.72
2022-12-25T00:21:55.848Z,9.50
2022-12-25T00:24:23.298Z,9.66
2022-12-25T00:26:50.826Z,9.35
2022-12-25T00:29:18.383Z,9.65
2022-12-25T00:31:47.353Z,9.34
2022-12-25T00:34:14.920Z,9.64
2022-12-25T00:36:42.504Z,9.51
2022-12-25T00:39:10.161Z,9.52
2022-12-25T00:41:55.288Z,9.63
2022-12-25T00:44:22.833Z,9.64
2022-12-25T00:46:51.758Z,9.53
2022-12-25T00:49:19.349Z,9.60
2022-12-25T00:51:46.883Z,9.48
2022-12-25T00:54:14.355Z,9.45
2022-12-25T00:56:41.853Z,9.62
2022-12-25T00:59:09.370Z,9.61
2022-12-25T01:01:37.189Z,9.74
2022-12-25T01:04:06.656Z,9.87
2022-12-25T01:06:34.174Z,9.63
2022-12-25T01:09:19.114Z,9.82
2022-12-25T01:11:46.594Z,9.99
2022-12-25T01:14:14.141Z,9.97
2022-12-25T01:16:41.774Z,9.89
2022-12-25T01:19:12.392Z,9.79
2022-12-25T01:21:40.047Z,9.63
2022-12-25T01:24:07.982Z,10.00
2022-12-25T01:26:35.491Z,10.04
2022-12-25T01:29:03.553Z,10.08
2022-12-25T01:31:31.106Z,9.90
2022-12-25T01:33:58.623Z,10.18
2022-12-25T01:36:27.572Z,10.27
2022-12-25T01:38:55.145Z,9.97
2022-12-25T01:41:23.206Z,10.55
2022-12-25T01:43:57.865Z,9.91
2022-12-25T01:46:25.480Z,10.03
2022-12-25T01:48:53.003Z,10.58
2022-12-25T01:51:22.073Z,10.62
2022-12-25T01:53:50.940Z,10.56
2022-12-25T01:56:18.441Z,10.82
2022-12-25T01:58:45.992Z,10.05
2022-12-25T02:01:13.634Z,10.58
2022-12-25T02:03:42.785Z,10.91
2022-12-25T02:06:10.356Z,10.95
2022-12-25T02:08:37.826Z,11.10
2022-12-25T02:11:06.770Z,11.01
2022-12-25T02:13:34.306Z,10.98
2022-12-25T02:16:05.975Z,10.96
2022-12-25T02:18:38.591Z,10.52
2022-12-25T02:21:38.689Z,10.87
2022-12-25T02:24:17.526Z,11.00
2022-12-25T02:26:59.561Z,10.86
2022-12-25T02:29:33.071Z,11.02
2022-12-25T02:32:04.194Z,10.88
2022-12-25T02:34:34.524Z,11.22
2022-12-25T02:37:07.314Z,10.77
2022-12-25T02:39:58.887Z,10.72
2022-12-25T02:42:56.105Z,10.53
2022-12-25T02:45:46.645Z,11.00
2022-12-25T02:48:32.638Z,11.11
2022-12-25T02:51:19.086Z,11.33
2022-12-25T02:54:05.421Z,11.29
2022-12-25T02:56:51.265Z,11.07
2022-12-25T02:59:37.028Z,11.08
2022-12-25T03:02:24.259Z,11.13
2022-12-25T03:05:09.995Z,11.03
2022-12-25T03:07:39.541Z,11.06
2022-12-25T03:10:28.250Z,11.20
2022-12-25T03:13:00.490Z,10.94
2022-12-25T03:15:45.587Z,11.13
2022-12-25T03:18:16.419Z,11.37
2022-12-25T03:21:16.538Z,11.41
2022-12-25T03:24:06.223Z,11.42
2022-12-25T03:26:51.840Z,11.75
2022-12-25T03:29:33.469Z,11.60
2022-12-25T03:32:06.287Z,11.51
2022-12-25T03:34:58.785Z,11.70
2022-12-25T03:37:49.920Z,11.41
2022-12-25T03:40:42.890Z,11.24
2022-12-25T03:43:38.512Z,11.75
2022-12-25T03:46:28.332Z,11.83
2022-12-25T03:49:19.553Z,11.78
2022-12-25T03:52:07.792Z,11.90
2022-12-25T03:54:55.820Z,11.47
2022-12-25T03:57:41.115Z,11.50
2022-12-25T04:00:27.574Z,11.56
2022-12-25T04:03:12.824Z,11.90
2022-12-25T04:05:58.244Z,11.72
2022-12-25T04:08:49.942Z,11.52
2022-12-25T04:11:35.462Z,12.01
2022-12-25T04:14:20.772Z,12.24
2022-12-25T04:17:06.135Z,11.85
2022-12-25T04:19:51.554Z,11.78
2022-12-25T04:22:36.941Z,11.98
2022-12-25T04:25:24.529Z,11.54
2022-12-25T04:28:09.941Z,11.81
2022-12-25T04:30:55.211Z,11.82
2022-12-25T04:33:51.962Z,11.89
2022-12-25T04:36:19.936Z,12.07
2022-12-25T04:38:47.628Z,12.14
2022-12-25T04:41:16.747Z,11.78
2022-12-25T04:43:44.476Z,11.80
2022-12-25T04:46:12.269Z,11.88
2022-12-25T04:48:39.998Z,12.20
2022-12-25T04:51:12.717Z,12.12
2022-12-25T04:53:40.378Z,11.95
2022-12-25T04:56:08.135Z,12.37
2022-12-25T04:58:37.239Z,11.75
2022-12-25T05:01:05.541Z,11.98
2022-12-25T05:03:33.957Z,12.16
2022-12-25T05:06:02.035Z,11.83
2022-12-25T05:08:30.316Z,12.07
2022-12-25T05:10:58.239Z,12.16
2022-12-25T05:13:26.313Z,11.86
2022-12-25T05:15:55.393Z,12.17
2022-12-25T05:18:23.193Z,12.18
2022-12-25T05:20:54.491Z,12.01
2022-12-25T05:23:22.968Z,11.96
2022-12-25T05:25:50.683Z,12.07
2022-12-25T05:28:18.323Z,12.29
2022-12-25T05:30:46.053Z,12.17
2022-12-25T05:33:16.498Z,11.81
2022-12-25T05:35:44.220Z,12.09
2022-12-25T05:38:11.924Z,11.56
2022-12-25T05:40:40.770Z,11.98
2022-12-25T05:43:09.209Z,12.15
2022-12-25T05:45:37.249Z,11.80
2022-12-25T05:48:05.114Z,12.00
2022-12-25T05:50:34.153Z,12.56
2022-12-25T05:53:07.847Z,12.56
2022-12-25T05:55:36.304Z,12.37
2022-12-25T05:58:04.592Z,12.37
2022-12-25T06:00:32.612Z,12.32
2022-12-25T06:03:00.420Z,12.49
2022-12-25T06:05:28.337Z,12.16
2022-12-25T06:07:57.495Z,12.62
2022-12-25T06:10:25.410Z,12.24
2022-12-25T06:12:53.062Z,12.56
2022-12-25T06:15:20.773Z,12.38
2022-12-25T06:17:48.489Z,12.75
2022-12-25T06:20:16.163Z,12.90
2022-12-25T06:22:43.890Z,12.52
2022-12-25T06:25:13.236Z,12.90
2022-12-25T06:27:40.953Z,12.72
2022-12-25T06:30:09.992Z,12.63
2022-12-25T06:32:37.962Z,12.58
2022-12-25T06:35:06.385Z,12.85
2022-12-25T06:37:34.104Z,12.78
2022-12-25T06:40:01.814Z,12.86
2022-12-25T06:42:30.839Z,12.66
2022-12-25T06:44:58.492Z,12.65
2022-12-25T06:47:26.216Z,12.31
2022-12-25T06:49:53.940Z,12.51
2022-12-25T06:52:21.655Z,12.15
2022-12-25T06:54:49.388Z,12.36
2022-12-25T06:57:17.161Z,12.21
2022-12-25T06:59:51.280Z,12.20
2022-12-25T07:02:24.050Z,11.96
2022-12-25T07:04:52.376Z,11.94
2022-12-25T07:07:20.789Z,11.83
2022-12-25T07:09:48.526Z,12.11
2022-12-25T07:12:18.202Z,12.28
2022-12-25T07:14:49.007Z,12.53
2022-12-25T07:17:16.929Z,12.41
2022-12-25T07:19:45.295Z,12.25
2022-12-25T07:22:13.188Z,12.09
2022-12-25T07:24:40.905Z,11.89
2022-12-25T07:27:09.295Z,12.10
2022-12-25T07:29:36.969Z,11.75
2022-12-25T07:32:06.882Z,12.16
2022-12-25T07:34:34.613Z,12.32
2022-12-25T07:37:02.320Z,12.03
2022-12-25T07:39:30.353Z,12.56
2022-12-25T07:41:58.027Z,12.42
2022-12-25T07:44:25.766Z,12.51
2022-12-25T07:46:53.454Z,12.57
2022-12-25T07:49:22.706Z,11.83
2022-12-25T07:51:50.369Z,12.66
2022-12-25T07:54:18.144Z,12.64
2022-12-25T07:56:45.876Z,12.75
2022-12-25T07:59:13.622Z,12.69
2022-12-25T08:01:41.426Z,12.57
2022-12-25T08:04:11.580Z,12.80
2022-12-25T08:06:40.727Z,12.70
2022-12-25T08:09:10.224Z,12.80
2022-12-25T08:11:38.609Z,12.49
2022-12-25T08:14:06.954Z,12.59
2022-12-25T08:16:35.234Z,12.47
2022-12-25T08:19:03.015Z,12.44
2022-12-25T08:21:30.658Z,12.48
2022-12-25T08:23:59.698Z,12.82
2022-12-25T08:26:27.364Z,12.44
2022-12-25T08:28:55.047Z,12.37
2022-12-25T08:31:25.160Z,12.69
2022-12-25T08:33:56.002Z,12.47
2022-12-25T08:36:24.615Z,12.91
2022-12-25T08:38:55.659Z,13.11
2022-12-25T08:41:27.989Z,12.80
2022-12-25T08:43:55.836Z,12.76
2022-12-25T08:46:23.527Z,13.00
2022-12-25T08:48:51.407Z,13.12
2022-12-25T08:51:20.932Z,13.15
2022-12-25T08:53:50.196Z,12.85
2022-12-25T08:56:19.135Z,13.06
2022-12-25T08:58:48.406Z,12.91
2022-12-25T09:01:16.369Z,13.01
2022-12-25T09:03:44.235Z,13.07
2022-12-25T09:06:14.693Z,13.13
2022-12-25T09:08:48.626Z,13.10
2022-12-25T09:11:18.641Z,13.37
2022-12-25T09:13:46.301Z,13.32
2022-12-25T09:16:17.368Z,13.41
2022-12-25T09:18:45.112Z,13.17
2022-12-25T09:21:15.089Z,13.22
2022-12-25T09:23:43.299Z,13.03
2022-12-25T09:26:12.807Z,13.02
2022-12-25T09:28:45.161Z,12.92
2022-12-25T09:31:17.809Z,13.08
2022-12-25T09:33:45.549Z,13.02
2022-12-25T09:36:13.318Z,13.40
2022-12-25T09:38:41.041Z,13.12
2022-12-25T09:41:14.949Z,13.25
2022-12-25T09:43:45.562Z,12.87
2022-12-25T09:46:18.735Z,12.97
2022-12-25T09:48:49.541Z,13.11
2022-12-25T09:51:17.519Z,12.86
2022-12-25T09:53:46.220Z,13.10
2022-12-25T09:56:14.268Z,13.27
2022-12-25T09:58:41.772Z,13.08
2022-12-25T10:01:12.002Z,13.05
2022-12-25T10:03:45.032Z,12.98
2022-12-25T10:06:14.021Z,12.76
2022-12-25T10:09:02.178Z,13.29
2022-12-25T10:11:32.960Z,13.28
2022-12-25T10:14:05.743Z,13.17
2022-12-25T10:16:34.607Z,13.23
2022-12-25T10:19:15.417Z,13.35
2022-12-25T10:21:42.941Z,13.43
2022-12-25T10:24:12.398Z,13.48
2022-12-25T10:26:39.906Z,13.54
2022-12-25T10:29:10.649Z,13.18
2022-12-25T10:31:38.204Z,13.39
2022-12-25T10:34:06.239Z,13.20
2022-12-25T10:36:35.319Z,13.21
2022-12-25T10:39:02.831Z,13.24
2022-12-25T10:41:34.342Z,13.14
2022-12-25T10:44:02.031Z,13.25
2022-12-25T10:46:29.579Z,13.39
2022-12-25T10:48:57.875Z,13.23
2022-12-25T10:51:32.165Z,13.25
2022-12-25T10:54:01.851Z,12.79
2022-12-25T10:56:29.599Z,13.13
2022-12-25T10:59:06.411Z,13.26
2022-12-25T11:01:34.031Z,13.02
2022-12-25T11:04:01.689Z,12.99
2022-12-25T11:06:29.854Z,12.96
2022-12-25T11:08:57.901Z,12.88
2022-12-25T11:11:27.062Z,12.80
2022-12-25T11:13:56.295Z,12.44
2022-12-25T11:16:29.876Z,12.77
2022-12-25T11:18:58.844Z,12.98
2022-12-25T11:21:28.909Z,13.00
2022-12-25T11:23:58.846Z,12.83
2022-12-25T11:26:29.275Z,12.89
2022-12-25T11:28:57.563Z,12.86
2022-12-25T11:31:31.226Z,12.86
2022-12-25T11:34:03.089Z,12.83
2022-12-25T11:36:33.236Z,12.53
2022-12-25T11:39:02.916Z,13.08
2022-12-25T11:41:33.804Z,12.86
2022-12-25T11:44:05.128Z,12.80
2022-12-25T11:46:40.227Z,12.86
2022-12-25T11:49:09.101Z,13.10
2022-12-25T11:51:39.462Z,12.93
2022-12-25T11:54:15.685Z,12.88
2022-12-25T11:56:44.841Z,12.96
2022-12-25T11:59:18.497Z,12.83
2022-12-25T12:01:48.421Z,13.05
2022-12-25T12:04:24.314Z,13.22
2022-12-25T12:06:57.625Z,13.13
2022-12-25T12:09:35.774Z,12.86
2022-12-25T12:12:08.974Z,12.79
2022-12-25T12:14:45.082Z,12.85
2022-12-25T12:17:13.243Z,12.96
2022-12-25T12:19:40.946Z,12.91
2022-12-25T12:22:15.845Z,12.66
2022-12-25T12:24:44.584Z,13.00
2022-12-25T12:27:22.954Z,12.83
2022-12-25T12:29:52.071Z,12.55
2022-12-25T12:32:28.952Z,12.43
2022-12-25T12:34:57.916Z,12.96
2022-12-25T12:37:29.305Z,12.83
2022-12-25T12:39:57.569Z,12.85
2022-12-25T12:42:27.789Z,12.92
2022-12-25T12:44:56.619Z,12.92
2022-12-25T12:47:34.105Z,13.03
2022-12-25T12:50:02.545Z,12.99
2022-12-25T12:52:33.803Z,12.97
2022-12-25T12:55:04.917Z,12.89
2022-12-25T12:57:39.959Z,12.85
2022-12-25T13:00:11.128Z,12.52
2022-12-25T13:03:05.908Z,12.73
2022-12-25T13:05:38.664Z,12.87
2022-12-25T13:08:17.552Z,12.33
2022-12-25T13:10:47.824Z,12.75
2022-12-25T13:13:19.870Z,12.91
2022-12-25T13:15:49.029Z,12.93
2022-12-25T13:18:17.074Z,12.73
2022-12-25T13:20:49.457Z,12.94
2022-12-25T13:23:26.087Z,12.94
2022-12-25T13:25:55.393Z,12.72
2022-12-25T13:28:31.961Z,13.06
2022-12-25T13:31:04.135Z,13.16
2022-12-25T13:33:32.077Z,13.06
2022-12-25T13:35:59.843Z,13.04
2022-12-25T13:38:28.608Z,13.00
2022-12-25T13:41:15.783Z,13.16
2022-12-25T13:43:45.569Z,13.21
2022-12-25T13:46:14.454Z,13.28
2022-12-25T13:48:42.611Z,13.10
2022-12-25T13:51:15.825Z,12.63
2022-12-25T13:53:43.763Z,12.29
2022-12-25T13:56:14.848Z,12.80
2022-12-25T13:58:44.433Z,13.11
2022-12-25T14:01:16.875Z,13.15
2022-12-25T14:03:46.998Z,13.07
2022-12-25T14:06:20.220Z,12.82
2022-12-25T14:08:48.662Z,12.98
2022-12-25T14:11:17.648Z,13.07
2022-12-25T14:13:48.304Z,12.93
2022-12-25T14:16:17.595Z,13.16
2022-12-25T14:18:52.169Z,13.07
2022-12-25T14:21:29.837Z,13.10
2022-12-25T14:23:57.694Z,13.12
2022-12-25T14:26:27.190Z,12.83
2022-12-25T14:29:00.218Z,12.91
2022-12-25T14:31:29.846Z,13.02
2022-12-25T14:33:59.222Z,12.90
2022-12-25T14:36:27.450Z,13.11
2022-12-25T14:38:59.778Z,12.95
2022-12-25T14:41:37.874Z,12.95
2022-12-25T14:44:25.315Z,13.11
2022-12-25T14:47:04.399Z,12.99
2022-12-25T14:49:33.111Z,12.91
2022-12-25T14:52:00.812Z,13.00
2022-12-25T14:54:28.755Z,12.88
2022-12-25T14:56:57.094Z,12.99
2022-12-25T14:59:27.323Z,13.04
2022-12-25T15:01:57.480Z,12.95
2022-12-25T15:04:26.121Z,12.97
2022-12-25T15:06:55.338Z,12.81
2022-12-25T15:09:23.653Z,13.10
2022-12-25T15:11:52.213Z,13.12
2022-12-25T15:14:20.122Z,13.15
2022-12-25T15:16:51.345Z,13.17
2022-12-25T15:19:25.796Z,12.98
2022-12-25T15:21:54.969Z,13.07
2022-12-25T15:24:22.632Z,13.18
2022-12-25T15:26:53.181Z,13.20
2022-12-25T15:29:44.544Z,13.22
2022-12-25T15:32:15.507Z,13.14
2022-12-25T15:34:46.162Z,13.17
2022-12-25T15:37:14.732Z,13.40
2022-12-25T15:39:42.523Z,13.41
2022-12-25T15:42:14.622Z,13.32
2022-12-25T15:44:43.722Z,13.34
2022-12-25T15:47:13.848Z,13.35
2022-12-25T15:49:42.034Z,13.50
2022-12-25T15:52:12.631Z,13.61
2022-12-25T15:54:40.273Z,13.47
2022-12-25T15:57:16.378Z,13.53
2022-12-25T15:59:44.077Z,13.46
2022-12-25T16:02:17.401Z,13.50
2022-12-25T16:04:45.289Z,13.44
2022-12-25T16:07:15.743Z,13.38
2022-12-25T16:09:43.588Z,13.54
2022-12-25T16:12:11.353Z,13.50
2022-12-25T16:14:39.346Z,13.47
2022-12-25T16:17:07.169Z,13.28
2022-12-25T16:19:36.247Z,13.47
2022-12-25T16:22:12.130Z,13.57
2022-12-25T16:24:39.893Z,13.52
2022-12-25T16:27:07.548Z,13.48
2022-12-25T16:29:35.459Z,13.48
2022-12-25T16:32:03.180Z,13.55
2022-12-25T16:34:30.824Z,13.63
2022-12-25T16:36:59.827Z,13.79
2022-12-25T16:39:27.499Z,13.59
2022-12-25T16:41:55.198Z,13.63
2022-12-25T16:44:22.876Z,13.85
2022-12-25T16:46:50.681Z,13.99
2022-12-25T16:49:18.490Z,13.82
2022-12-25T16:51:46.217Z,13.93
2022-12-25T16:54:15.306Z,13.98
2022-12-25T16:56:42.961Z,13.79
2022-12-25T16:59:10.624Z,13.63
2022-12-25T17:01:43.166Z,13.74
2022-12-25T17:04:11.143Z,13.45
2022-12-25T17:06:38.827Z,13.65
2022-12-25T17:09:07.566Z,13.67
2022-12-25T17:11:36.663Z,13.78
2022-12-25T17:14:06.242Z,13.74
2022-12-25T17:16:35.396Z,13.77
2022-12-25T17:19:05.221Z,13.77
2022-12-25T17:21:34.307Z,13.86
2022-12-25T17:24:03.982Z,13.77
2022-12-25T17:26:32.497Z,13.48
2022-12-25T17:29:01.592Z,13.51
2022-12-25T17:31:29.453Z,13.60
2022-12-25T17:33:57.615Z,13.76
2022-12-25T17:36:25.375Z,13.60
2022-12-25T17:38:52.933Z,13.49
2022-12-25T17:41:20.765Z,13.65
2022-12-25T17:43:48.805Z,13.63
2022-12-25T17:46:18.266Z,13.59
2022-12-25T17:48:46.058Z,13.69
2022-12-25T17:51:14.262Z,13.60
2022-12-25T17:53:42.269Z,13.75
2022-12-25T17:56:10.092Z,13.77
2022-12-25T17:58:38.043Z,13.44
2022-12-25T18:01:06.101Z,13.60
2022-12-25T18:03:36.685Z,13.68
2022-12-25T18:06:04.519Z,13.68
2022-12-25T18:08:38.610Z,13.70
2022-12-25T18:11:07.721Z,13.65
2022-12-25T18:13:35.353Z,13.50
2022-12-25T18:16:03.166Z,13.53
2022-12-25T18:18:30.898Z,13.50
2022-12-25T18:21:00.108Z,13.30
2022-12-25T18:23:27.646Z,13.32
2022-12-25T18:25:55.947Z,13.22
2022-12-25T18:28:23.744Z,13.38
2022-12-25T18:30:51.254Z,13.62
2022-12-25T18:33:18.784Z,13.83
2022-12-25T18:35:47.594Z,13.60
2022-12-25T18:38:17.633Z,13.36
2022-12-25T18:40:45.638Z,13.30
2022-12-25T18:43:13.313Z,13.33
2022-12-25T18:45:41.373Z,13.33
2022-12-25T18:48:09.581Z,13.35
2022-12-25T18:50:37.325Z,13.27
2022-12-25T18:53:05.061Z,13.35
2022-12-25T18:55:34.566Z,13.37
2022-12-25T18:58:02.346Z,13.33
2022-12-25T19:00:29.929Z,13.51
2022-12-25T19:02:58.685Z,13.46
2022-12-25T19:05:26.544Z,13.36
2022-12-25T19:07:54.095Z,13.43
2022-12-25T19:10:21.646Z,13.41
2022-12-25T19:12:50.458Z,13.40
2022-12-25T19:15:18.068Z,13.06
2022-12-25T19:17:45.583Z,13.40
2022-12-25T19:20:13.207Z,13.17
2022-12-25T19:22:40.765Z,13.10
2022-12-25T19:25:08.773Z,12.81
2022-12-25T19:27:36.294Z,12.49
2022-12-25T19:30:05.452Z,12.68
2022-12-25T19:32:32.997Z,12.93
2022-12-25T19:35:04.406Z,13.17
2022-12-25T19:37:32.155Z,13.37
2022-12-25T19:39:59.787Z,13.61
2022-12-25T19:42:27.303Z,13.62
2022-12-25T19:44:55.860Z,13.54
2022-12-25T19:47:24.667Z,13.61
2022-12-25T19:49:53.429Z,13.62
2022-12-25T19:52:21.947Z,13.67
2022-12-25T19:54:51.198Z,13.35
2022-12-25T19:57:18.657Z,13.24
2022-12-25T19:59:46.138Z,13.09
2022-12-25T20:02:13.667Z,12.94
2022-12-25T20:04:42.735Z,13.13
2022-12-25T20:07:10.283Z,13.29
2022-12-25T20:09:37.750Z,12.96
2022-12-25T20:12:05.984Z,13.18
2022-12-25T20:14:33.498Z,12.85
2022-12-25T20:17:01.098Z,13.08
2022-12-25T20:19:28.651Z,13.29
2022-12-25T20:21:58.583Z,12.83
2022-12-25T20:24:26.087Z,12.70
2022-12-25T20:26:58.863Z,12.45
2022-12-25T20:29:26.799Z,12.68
2022-12-25T20:31:54.440Z,12.84
2022-12-25T20:34:21.987Z,12.97
2022-12-25T20:36:49.779Z,13.12
2022-12-25T20:39:18.591Z,13.33
2022-12-25T20:41:47.522Z,13.50
2022-12-25T20:44:15.002Z,12.56
2022-12-25T20:46:43.206Z,12.32
2022-12-25T20:49:10.753Z,12.53
2022-12-25T20:51:38.223Z,12.57
2022-12-25T20:54:06.953Z,12.67
2022-12-25T20:56:36.015Z,12.83
2022-12-25T20:59:03.509Z,12.53
2022-12-25T21:01:31.867Z,12.91
2022-12-25T21:03:59.630Z,12.94
2022-12-25T21:06:27.222Z,12.67
2022-12-25T21:08:54.741Z,12.58
2022-12-25T21:11:22.357Z,12.68
2022-12-25T21:13:51.241Z,12.66
2022-12-25T21:16:19.749Z,12.90
2022-12-25T21:18:47.467Z,12.66
2022-12-25T21:21:15.102Z,12.77
2022-12-25T21:23:42.646Z,12.65
2022-12-25T21:26:11.056Z,12.99
2022-12-25T21:28:38.669Z,13.19
2022-12-25T21:31:07.938Z,12.78
2022-12-25T21:33:52.841Z,12.99
2022-12-25T21:36:21.674Z,13.15
2022-12-25T21:38:49.197Z,12.89
2022-12-25T21:41:17.152Z,12.91
2022-12-25T21:43:44.653Z,13.10
2022-12-25T21:46:14.029Z,13.32
2022-12-25T21:48:41.710Z,13.33
2022-12-25T21:51:27.242Z,13.32
2022-12-25T21:53:54.795Z,13.29
2022-12-25T21:56:22.323Z,13.30
2022-12-25T21:58:49.839Z,13.06
2022-12-25T22:01:18.847Z,12.72
2022-12-25T22:03:46.591Z,12.99
2022-12-25T22:06:31.851Z,13.05
2022-12-25T22:08:59.415Z,13.27
2022-12-25T22:11:44.907Z,13.39
2022-12-25T22:14:50.106Z,13.14
2022-12-25T22:17:40.711Z,12.60
2022-12-25T22:20:09.839Z,12.65
2022-12-25T22:22:37.605Z,12.59
2022-12-25T22:25:06.003Z,12.85
2022-12-25T22:27:34.127Z,13.22
2022-12-25T22:30:01.692Z,13.38
2022-12-25T22:32:30.557Z,13.40
2022-12-25T22:34:58.216Z,13.24
2022-12-25T22:37:25.687Z,13.38
2022-12-25T22:39:53.227Z,13.16
2022-12-25T22:42:20.939Z,12.77
2022-12-25T22:44:48.482Z,12.76
2022-12-25T22:47:16.355Z,12.92
2022-12-25T22:49:45.205Z,12.82
2022-12-25T22:52:12.691Z,13.32
2022-12-25T22:54:40.320Z,13.40
2022-12-25T22:57:07.843Z,13.30
2022-12-25T22:59:35.517Z,12.97
2022-12-25T23:02:03.149Z,12.65
2022-12-25T23:04:30.799Z,12.72
2022-12-25T23:06:59.607Z,13.11
2022-12-25T23:09:28.188Z,13.06
2022-12-25T23:11:56.389Z,13.12
2022-12-25T23:14:46.717Z,12.72
2022-12-25T23:17:28.275Z,13.03
2022-12-25T23:20:14.036Z,12.79
2022-12-25T23:23:00.859Z,12.68
2022-12-25T23:25:46.301Z,12.79
2022-12-25T23:28:13.847Z,12.75
2022-12-25T23:30:40.381Z,12.58
2022-12-25T23:33:08.251Z,12.99
2022-12-25T23:35:35.730Z,13.09
2022-12-25T23:38:04.590Z,12.99
2022-12-25T23:40:32.070Z,12.80
2022-12-25T23:42:59.556Z,12.96
2022-12-25T23:45:27.087Z,13.15
2022-12-25T23:47:54.621Z,13.36
2022-12-25T23:50:22.108Z,13.29
2022-12-25T23:52:49.592Z,13.13
2022-12-25T23:55:18.546Z,13.39
2022-12-25T23:57:46.019Z,12.51
